createdAt,value
2023-01-03T00:01:20.968Z,2.47
2023-01-03T00:03:49.042Z,2.15
2023-01-03T00:06:18.156Z,2.80
2023-01-03T00:08:47.640Z,2.63
2023-01-03T00:11:17.407Z,2.53
2023-01-03T00:13:44.831Z,2.45
2023-01-03T00:16:19.303Z,2.80
2023-01-03T00:18:47.486Z,3.25
2023-01-03T00:21:15.260Z,3.92
2023-01-03T00:23:43.104Z,4.82
2023-01-03T00:26:15.503Z,4.88
2023-01-03T00:28:44.135Z,3.75
2023-01-03T00:31:13.233Z,4.47
2023-01-03T00:33:41.922Z,4.03
2023-01-03T00:36:10.978Z,4.78
2023-01-03T00:38:39.337Z,4.65
2023-01-03T00:41:08.107Z,3.50
2023-01-03T00:43:38.000Z,3.88
2023-01-03T00:46:06.940Z,3.67
2023-01-03T00:48:35.411Z,3.60
2023-01-03T00:51:07.084Z,3.35
2023-01-03T00:53:35.026Z,3.10
2023-01-03T00:56:06.606Z,3.42
2023-01-03T00:58:35.272Z,4.03
2023-01-03T01:01:07.499Z,3.28
2023-01-03T01:03:36.441Z,3.40
2023-01-03T01:06:12.598Z,4.95
2023-01-03T01:11:08.208Z,3.25
2023-01-03T01:13:36.513Z,3.97
2023-01-03T01:16:05.483Z,3.40
2023-01-03T01:18:35.369Z,3.70
2023-01-03T01:21:05.755Z,3.78
2023-01-03T01:23:33.555Z,3.88
2023-01-03T01:26:02.014Z,3.80
2023-01-03T01:28:30.122Z,3.58
2023-01-03T01:30:59.919Z,3.47
2023-01-03T01:33:28.794Z,4.00
2023-01-03T01:35:57.914Z,4.05
2023-01-03T01:38:25.976Z,3.55
2023-01-03T01:40:53.683Z,4.05
2023-01-03T01:43:42.377Z,3.72
2023-01-03T01:46:19.283Z,3.58
2023-01-03T01:48:48.115Z,4.10
2023-01-03T01:51:17.724Z,3.75
2023-01-03T01:53:45.897Z,3.83
2023-01-03T01:56:19.469Z,4.43
2023-01-03T01:58:51.170Z,3.63
2023-01-03T02:01:21.324Z,3.80
2023-01-03T02:03:55.434Z,4.13
2023-01-03T02:06:25.767Z,3.28
2023-01-03T02:08:53.550Z,3.65
2023-01-03T02:11:33.882Z,3.70
2023-01-03T02:14:14.221Z,3.78
2023-01-03T02:16:57.184Z,3.40
2023-01-03T02:19:47.012Z,3.90
2023-01-03T02:22:48.512Z,3.50
2023-01-03T02:25:50.745Z,3.50
2023-01-03T02:28:41.115Z,3.28
2023-01-03T02:31:14.231Z,3.85
2023-01-03T02:33:48.734Z,3.83
2023-01-03T02:36:23.623Z,3.60
2023-01-03T02:38:56.711Z,3.88
2023-01-03T02:41:31.793Z,3.67
2023-01-03T02:44:05.994Z,3.70
2023-01-03T02:46:43.723Z,3.33
2023-01-03T02:49:18.044Z,4.20
2023-01-03T02:51:49.513Z,3.60
2023-01-03T02:54:22.775Z,3.20
2023-01-03T02:56:55.353Z,3.72
2023-01-03T02:59:27.267Z,3.60
2023-01-03T03:01:56.681Z,4.30
2023-01-03T03:04:25.751Z,2.90
2023-01-03T03:07:00.119Z,2.88
2023-01-03T03:09:27.893Z,4.05
2023-01-03T03:12:13.892Z,3.92
2023-01-03T03:14:46.397Z,2.90
2023-01-03T03:17:21.218Z,2.90
2023-01-03T03:20:12.861Z,2.80
2023-01-03T03:23:19.017Z,3.00
2023-01-03T03:25:51.539Z,3.17
2023-01-03T03:28:35.900Z,3.47
2023-01-03T03:31:08.178Z,3.40
2023-01-03T03:33:42.134Z,3.70
2023-01-03T03:36:15.749Z,2.88
2023-01-03T03:38:45.685Z,3.47
2023-01-03T03:41:39.701Z,3.17
2023-01-03T03:44:34.396Z,2.85
2023-01-03T03:47:07.899Z,2.72
2023-01-03T03:49:39.150Z,2.83
2023-01-03T03:52:11.324Z,3.47
2023-01-03T03:54:41.455Z,3.00
2023-01-03T03:57:13.619Z,3.08
2023-01-03T03:59:45.025Z,3.17
2023-01-03T04:02:14.616Z,3.85
2023-01-03T04:04:48.152Z,3.17
2023-01-03T04:07:15.950Z,3.10
2023-01-03T04:09:43.672Z,3.22
2023-01-03T04:12:11.478Z,2.67
2023-01-03T04:14:39.184Z,2.65
2023-01-03T04:17:06.909Z,2.92
2023-01-03T04:19:34.614Z,3.00
2023-01-03T04:22:03.685Z,3.13
2023-01-03T04:24:31.406Z,3.05
2023-01-03T04:26:59.220Z,2.95
2023-01-03T04:29:26.990Z,3.67
2023-01-03T04:31:54.782Z,3.72
2023-01-03T04:34:22.625Z,2.95
2023-01-03T04:36:50.411Z,3.30
2023-01-03T04:39:19.611Z,3.40
2023-01-03T04:41:47.346Z,3.58
2023-01-03T04:44:14.324Z,2.83
2023-01-03T04:46:45.105Z,3.15
2023-01-03T04:49:15.419Z,3.22
2023-01-03T04:51:43.232Z,3.47
2023-01-03T04:54:11.055Z,3.97
2023-01-03T04:56:40.176Z,4.00
2023-01-03T04:59:07.975Z,3.20
2023-01-03T05:01:35.883Z,3.75
2023-01-03T05:04:05.007Z,3.38
2023-01-03T05:06:32.973Z,3.30
2023-01-03T05:09:00.691Z,4.10
2023-01-03T05:11:28.459Z,3.40
2023-01-03T05:13:57.529Z,3.67
2023-01-03T05:16:25.286Z,3.85
2023-01-03T05:18:53.333Z,3.45
2023-01-03T05:21:40.377Z,3.00
2023-01-03T05:24:28.718Z,3.30
2023-01-03T05:26:57.380Z,3.60
2023-01-03T05:29:27.817Z,3.58
2023-01-03T05:31:55.628Z,3.08
2023-01-03T05:34:23.482Z,3.00
2023-01-03T05:36:51.260Z,2.67
2023-01-03T05:39:19.333Z,3.83
2023-01-03T05:42:02.358Z,2.85
2023-01-03T05:44:33.359Z,2.72
2023-01-03T05:47:02.242Z,2.95
2023-01-03T05:49:30.058Z,2.80
2023-01-03T05:51:58.044Z,3.42
2023-01-03T05:54:25.895Z,3.00
2023-01-03T05:56:53.738Z,2.75
2023-01-03T05:59:22.632Z,2.70
2023-01-03T06:01:51.902Z,3.00
2023-01-03T06:04:20.837Z,3.05
2023-01-03T06:06:48.700Z,2.88
2023-01-03T06:09:16.579Z,3.13
2023-01-03T06:11:44.343Z,3.90
2023-01-03T06:14:12.072Z,3.97
2023-01-03T06:16:57.377Z,3.22
2023-01-03T06:19:26.558Z,3.17
2023-01-03T06:21:54.349Z,3.10
2023-01-03T06:24:22.162Z,3.25
2023-01-03T06:26:50.062Z,3.55
2023-01-03T06:29:17.914Z,4.05
2023-01-03T06:31:45.637Z,4.28
2023-01-03T06:34:13.418Z,4.03
2023-01-03T06:36:42.525Z,4.97
2023-01-03T06:39:10.304Z,4.40
2023-01-03T06:41:38.094Z,5.63
2023-01-03T06:44:06.174Z,8.15
2023-01-03T06:46:51.619Z,10.35
2023-01-03T06:49:37.489Z,7.57
2023-01-03T06:52:31.368Z,6.38
2023-01-03T06:54:59.289Z,5.55
2023-01-03T06:57:27.549Z,5.18
2023-01-03T06:59:55.552Z,4.60
2023-01-03T07:02:23.569Z,4.93
2023-01-03T07:04:51.698Z,5.55
2023-01-03T07:07:20.789Z,5.35
2023-01-03T07:09:48.559Z,5.90
2023-01-03T07:12:37.401Z,5.93
2023-01-03T07:15:06.289Z,5.30
2023-01-03T07:17:34.081Z,7.65
2023-01-03T07:20:01.880Z,9.85
2023-01-03T07:22:31.008Z,10.05
2023-01-03T07:24:58.815Z,9.98
2023-01-03T07:27:26.602Z,8.68
2023-01-03T07:29:54.301Z,10.10
2023-01-03T07:32:22.028Z,7.13
2023-01-03T07:34:49.810Z,7.03
2023-01-03T07:37:17.569Z,6.07
2023-01-03T07:39:46.658Z,6.07
2023-01-03T07:42:31.914Z,9.70
2023-01-03T07:44:59.694Z,7.40
2023-01-03T07:47:27.476Z,6.97
2023-01-03T07:49:55.284Z,5.38
2023-01-03T07:52:23.083Z,4.97
2023-01-03T07:54:52.213Z,5.32
2023-01-03T07:57:20.061Z,4.70
2023-01-03T07:59:47.805Z,5.03
2023-01-03T08:02:15.700Z,5.40
2023-01-03T08:04:43.546Z,5.60
2023-01-03T08:07:11.280Z,5.45
2023-01-03T08:09:55.889Z,4.57
2023-01-03T08:12:42.420Z,5.00
2023-01-03T08:15:10.811Z,4.30
2023-01-03T08:17:38.630Z,4.43
2023-01-03T08:20:07.792Z,4.13
2023-01-03T08:22:35.618Z,3.70
2023-01-03T08:25:03.403Z,4.72
2023-01-03T08:27:32.492Z,4.10
2023-01-03T08:30:00.313Z,4.63
2023-01-03T08:32:28.584Z,3.47
2023-01-03T08:34:56.465Z,4.30
2023-01-03T08:37:24.210Z,6.10
2023-01-03T08:39:57.504Z,5.43
2023-01-03T08:42:26.065Z,5.00
2023-01-03T08:45:00.108Z,5.80
2023-01-03T08:47:28.993Z,7.43
2023-01-03T08:49:57.063Z,5.72
2023-01-03T08:52:27.888Z,5.40
2023-01-03T08:54:59.461Z,5.57
2023-01-03T08:57:27.246Z,4.32
2023-01-03T08:59:56.361Z,6.85
2023-01-03T09:02:27.139Z,5.75
2023-01-03T09:04:56.450Z,6.35
2023-01-03T09:07:26.167Z,5.50
2023-01-03T09:09:55.815Z,3.88
2023-01-03T09:12:25.567Z,3.97
2023-01-03T09:14:55.286Z,3.15
2023-01-03T09:17:26.690Z,3.95
2023-01-03T09:19:56.394Z,3.90
2023-01-03T09:22:26.169Z,4.20
2023-01-03T09:24:56.149Z,4.45
2023-01-03T09:27:26.080Z,4.07
2023-01-03T09:29:55.799Z,5.07
2023-01-03T09:32:27.028Z,5.55
2023-01-03T09:34:56.954Z,5.85
2023-01-03T09:37:26.697Z,4.50
2023-01-03T09:39:56.429Z,3.85
2023-01-03T09:42:46.127Z,3.47
2023-01-03T09:45:18.658Z,3.90
2023-01-03T09:47:50.055Z,4.25
2023-01-03T09:50:35.042Z,3.90
2023-01-03T09:53:36.829Z,4.50
2023-01-03T09:56:19.997Z,3.47
2023-01-03T09:59:10.981Z,4.13
2023-01-03T10:02:04.395Z,4.07
2023-01-03T10:05:05.203Z,3.75
2023-01-03T10:07:44.632Z,4.07
2023-01-03T10:10:18.508Z,3.70
2023-01-03T10:12:59.918Z,3.80
2023-01-03T10:15:38.539Z,3.72
2023-01-03T10:18:17.544Z,3.75
2023-01-03T10:20:50.998Z,3.97
2023-01-03T10:23:19.781Z,3.88
2023-01-03T10:25:48.334Z,3.78
2023-01-03T10:28:21.213Z,3.42
2023-01-03T10:31:07.807Z,3.10
2023-01-03T10:33:39.925Z,2.63
2023-01-03T10:36:10.431Z,4.55
2023-01-03T10:38:46.418Z,3.10
2023-01-03T10:41:24.045Z,4.15
2023-01-03T10:43:58.681Z,4.00
2023-01-03T10:46:28.049Z,4.70
2023-01-03T10:51:56.368Z,4.00
2023-01-03T10:54:29.409Z,4.03
2023-01-03T10:56:57.704Z,2.85
2023-01-03T10:59:27.302Z,3.35
2023-01-03T11:02:03.664Z,3.60
2023-01-03T11:04:32.778Z,3.38
2023-01-03T11:07:12.509Z,4.20
2023-01-03T11:09:50.568Z,3.78
2023-01-03T11:12:27.691Z,3.90
2023-01-03T11:14:57.639Z,5.13
2023-01-03T11:17:27.618Z,4.25
2023-01-03T11:19:57.483Z,4.28
2023-01-03T11:22:38.203Z,4.00
2023-01-03T11:25:20.873Z,5.25
2023-01-03T11:28:24.372Z,6.32
2023-01-03T11:30:57.404Z,3.95
2023-01-03T11:33:50.128Z,4.60
2023-01-03T11:36:27.690Z,3.33
2023-01-03T11:39:15.564Z,4.70
2023-01-03T11:42:12.859Z,3.42
2023-01-03T11:45:03.838Z,3.72
2023-01-03T11:47:41.638Z,3.55
2023-01-03T11:50:25.612Z,7.47
2023-01-03T11:53:00.730Z,5.55
2023-01-03T11:56:02.071Z,3.97
2023-01-03T11:58:59.483Z,3.13
2023-01-03T12:01:41.608Z,2.88
2023-01-03T12:04:27.612Z,3.22
2023-01-03T12:07:45.832Z,4.22
2023-01-03T12:10:05.214Z,3.75
2023-01-03T12:12:52.497Z,2.75
2023-01-03T12:15:24.733Z,3.95
2023-01-03T12:17:58.121Z,2.90
2023-01-03T12:20:29.422Z,3.35
2023-01-03T12:23:05.588Z,3.70
2023-01-03T12:25:37.529Z,4.07
2023-01-03T12:28:14.038Z,3.08
2023-01-03T12:30:45.069Z,2.97
2023-01-03T12:33:30.840Z,2.95
2023-01-03T12:36:02.589Z,2.83
2023-01-03T12:38:34.968Z,2.78
2023-01-03T12:41:12.029Z,2.28
2023-01-03T12:43:48.907Z,1.75
2023-01-03T12:46:20.320Z,2.50
2023-01-03T12:48:55.915Z,2.33
2023-01-03T12:51:25.568Z,2.22
2023-01-03T12:54:04.771Z,2.28
2023-01-03T12:56:51.040Z,2.72
2023-01-03T12:59:35.181Z,2.70
2023-01-03T13:02:17.345Z,3.40
2023-01-03T13:04:46.259Z,2.40
2023-01-03T13:07:19.162Z,2.75
2023-01-03T13:09:57.437Z,1.90
2023-01-03T13:12:31.649Z,2.22
2023-01-03T13:15:17.196Z,1.92
2023-01-03T13:17:46.820Z,1.80
2023-01-03T13:20:33.202Z,1.95
2023-01-03T13:25:34.590Z,2.20
2023-01-03T13:28:06.787Z,2.20
2023-01-03T13:30:38.186Z,2.33
2023-01-03T13:33:16.931Z,1.98
2023-01-03T13:35:59.773Z,2.10
2023-01-03T13:38:31.154Z,1.55
2023-01-03T13:41:18.115Z,1.40
2023-01-03T13:43:50.767Z,1.63
2023-01-03T13:46:26.428Z,1.30
2023-01-03T13:48:58.026Z,1.33
2023-01-03T13:51:44.972Z,1.60
2023-01-03T13:55:06.659Z,1.10
2023-01-03T13:57:51.520Z,1.70
2023-01-03T14:00:22.133Z,0.85
2023-01-03T14:03:25.936Z,1.05
2023-01-03T14:06:10.072Z,0.80
2023-01-03T14:09:16.976Z,0.75
2023-01-03T14:12:12.237Z,1.20
2023-01-03T14:14:42.666Z,1.38
2023-01-03T14:17:17.392Z,1.25
2023-01-03T14:19:51.866Z,1.08
2023-01-03T14:22:32.051Z,1.33
2023-01-03T14:25:00.369Z,1.27
2023-01-03T14:27:36.342Z,1.40
2023-01-03T14:30:05.079Z,0.98
2023-01-03T14:32:36.041Z,0.98
2023-01-03T14:35:04.075Z,1.35
2023-01-03T14:37:34.898Z,1.00
2023-01-03T14:40:05.678Z,1.48
2023-01-03T14:42:33.644Z,1.20
2023-01-03T14:45:03.769Z,1.15
2023-01-03T14:47:35.227Z,1.23
2023-01-03T14:50:04.985Z,1.33
2023-01-03T14:52:36.602Z,1.30
2023-01-03T14:55:07.777Z,0.93
2023-01-03T14:57:39.704Z,1.27
2023-01-03T15:00:12.442Z,1.13
2023-01-03T15:02:43.096Z,0.90
2023-01-03T15:05:26.583Z,1.00
2023-01-03T15:07:56.765Z,1.15
2023-01-03T15:10:32.080Z,1.85
2023-01-03T15:13:04.579Z,1.33
2023-01-03T15:15:37.910Z,1.55
2023-01-03T15:18:09.640Z,2.13
2023-01-03T15:20:39.783Z,2.72
2023-01-03T15:23:23.951Z,2.60
2023-01-03T15:25:53.071Z,1.55
2023-01-03T15:28:28.925Z,1.45
2023-01-03T15:31:01.048Z,1.38
2023-01-03T15:33:33.597Z,1.80
2023-01-03T15:36:10.895Z,1.88
2023-01-03T15:38:49.527Z,1.88
2023-01-03T15:41:43.972Z,1.48
2023-01-03T15:44:11.851Z,2.22
2023-01-03T15:46:44.591Z,1.90
2023-01-03T15:49:16.156Z,3.42
2023-01-03T15:51:43.938Z,3.08
2023-01-03T15:54:15.632Z,2.72
2023-01-03T15:56:49.758Z,2.40
2023-01-03T15:59:22.971Z,3.92
2023-01-03T16:01:50.876Z,3.45
2023-01-03T16:04:19.039Z,3.33
2023-01-03T16:06:47.058Z,4.22
2023-01-03T16:09:16.509Z,5.28
2023-01-03T16:11:45.450Z,4.07
2023-01-03T16:14:16.281Z,5.40
2023-01-03T16:16:47.609Z,2.58
2023-01-03T16:19:21.518Z,2.00
2023-01-03T16:22:09.362Z,1.73
2023-01-03T16:24:40.297Z,1.70
2023-01-03T16:27:16.862Z,1.50
2023-01-03T16:29:44.771Z,2.47
2023-01-03T16:32:19.575Z,1.73
2023-01-03T16:34:48.154Z,1.10
2023-01-03T16:37:16.070Z,1.83
2023-01-03T16:39:48.251Z,2.00
2023-01-03T16:42:16.686Z,5.93
2023-01-03T16:44:46.543Z,6.13
2023-01-03T16:47:17.493Z,3.67
2023-01-03T16:49:47.339Z,3.72
2023-01-03T16:52:16.972Z,4.07
2023-01-03T16:54:46.428Z,4.82
2023-01-03T16:57:18.512Z,7.30
2023-01-03T16:59:46.938Z,9.35
2023-01-03T17:02:15.150Z,8.25
2023-01-03T17:04:43.149Z,6.82
2023-01-03T17:07:19.052Z,8.55
2023-01-03T17:09:50.720Z,6.78
2023-01-03T17:12:23.063Z,5.90
2023-01-03T17:14:51.486Z,7.28
2023-01-03T17:17:23.462Z,5.65
2023-01-03T17:20:07.010Z,3.97
2023-01-03T17:22:34.885Z,3.72
2023-01-03T17:25:04.090Z,5.07
2023-01-03T17:27:33.533Z,5.68
2023-01-03T17:30:03.872Z,6.25
2023-01-03T17:32:31.798Z,6.07
2023-01-03T17:35:00.698Z,5.20
2023-01-03T17:37:28.460Z,4.40
2023-01-03T17:39:58.678Z,4.18
2023-01-03T17:42:29.097Z,5.15
2023-01-03T17:45:14.585Z,5.78
2023-01-03T17:48:02.293Z,6.40
2023-01-03T17:50:32.135Z,7.13
2023-01-03T17:53:02.648Z,8.63
2023-01-03T17:55:31.754Z,8.80
2023-01-03T17:58:03.511Z,7.47
2023-01-03T18:00:31.795Z,7.57
2023-01-03T18:03:00.807Z,6.50
2023-01-03T18:05:29.843Z,5.43
2023-01-03T18:07:59.507Z,5.78
2023-01-03T18:10:33.800Z,5.22
2023-01-03T18:13:03.206Z,4.47
2023-01-03T18:15:31.078Z,4.47
2023-01-03T18:17:59.346Z,3.67
2023-01-03T18:20:28.024Z,4.10
2023-01-03T18:22:56.046Z,3.80
2023-01-03T18:25:25.635Z,4.38
2023-01-03T18:27:57.681Z,6.50
2023-01-03T18:30:27.647Z,7.50
2023-01-03T18:32:55.617Z,5.43
2023-01-03T18:35:29.726Z,5.95
2023-01-03T18:38:02.245Z,5.50
2023-01-03T18:40:31.372Z,5.88
2023-01-03T18:43:10.396Z,4.50
2023-01-03T18:45:40.599Z,4.65
2023-01-03T18:48:09.199Z,4.22
2023-01-03T18:50:37.905Z,4.03
2023-01-03T18:53:05.622Z,4.00
2023-01-03T18:55:35.765Z,3.50
2023-01-03T18:58:08.724Z,3.65
2023-01-03T19:00:36.618Z,4.72
2023-01-03T19:03:20.489Z,4.68
2023-01-03T19:05:48.539Z,3.65
2023-01-03T19:08:18.837Z,3.60
2023-01-03T19:10:47.209Z,4.20
2023-01-03T19:13:26.505Z,3.65
2023-01-03T19:15:55.032Z,3.75
2023-01-03T19:18:24.334Z,4.28
2023-01-03T19:20:52.338Z,5.00
2023-01-03T19:23:23.537Z,5.28
2023-01-03T19:25:51.618Z,5.30
2023-01-03T19:28:23.960Z,5.03
2023-01-03T19:30:52.696Z,5.10
2023-01-03T19:33:21.710Z,5.40
2023-01-03T19:35:51.020Z,5.45
2023-01-03T19:38:18.875Z,4.75
2023-01-03T19:40:46.918Z,6.28
2023-01-03T19:43:21.902Z,6.82
2023-01-03T19:45:50.646Z,6.28
2023-01-03T19:48:20.147Z,8.02
2023-01-03T19:50:48.908Z,8.23
2023-01-03T19:53:18.262Z,7.38
2023-01-03T19:55:47.969Z,11.65
2023-01-03T19:58:19.959Z,18.60
2023-01-03T20:00:49.888Z,6.95
2023-01-03T20:03:26.822Z,5.30
2023-01-03T20:05:55.002Z,4.78
2023-01-03T20:08:24.627Z,5.75
2023-01-03T20:10:54.088Z,6.20
2023-01-03T20:13:24.139Z,6.20
2023-01-03T20:15:53.905Z,5.72
2023-01-03T20:18:27.469Z,7.00
2023-01-03T20:20:58.324Z,5.47
2023-01-03T20:23:31.120Z,5.10
2023-01-03T20:25:59.286Z,5.60
2023-01-03T20:28:29.439Z,6.43
2023-01-03T20:30:58.106Z,6.22
2023-01-03T20:33:27.313Z,6.90
2023-01-03T20:36:19.922Z,6.88
2023-01-03T20:38:48.611Z,5.65
2023-01-03T20:41:18.243Z,7.15
2023-01-03T20:43:47.393Z,5.75
2023-01-03T20:46:19.803Z,5.97
2023-01-03T20:48:54.653Z,6.22
2023-01-03T20:51:24.086Z,6.20
2023-01-03T20:53:55.007Z,5.78
2023-01-03T20:56:23.524Z,6.75
2023-01-03T20:58:51.310Z,6.78
2023-01-03T21:01:19.240Z,7.05
2023-01-03T21:03:47.479Z,6.75
2023-01-03T21:06:19.045Z,6.50
2023-01-03T21:08:56.874Z,7.53
2023-01-03T21:11:28.928Z,6.95
2023-01-03T21:13:58.047Z,5.72
2023-01-03T21:16:33.744Z,5.60
2023-01-03T21:19:07.897Z,5.70
2023-01-03T21:21:36.143Z,7.15
2023-01-03T21:24:04.545Z,7.85
2023-01-03T21:26:34.589Z,6.22
2023-01-03T21:29:02.723Z,6.50
2023-01-03T21:31:30.907Z,5.25
2023-01-03T21:33:58.803Z,5.68
2023-01-03T21:36:29.502Z,8.20
2023-01-03T21:38:58.269Z,6.28
2023-01-03T21:41:28.293Z,5.30
2023-01-03T21:43:59.096Z,5.70
2023-01-03T21:46:27.824Z,5.32
2023-01-03T21:48:56.574Z,5.53
2023-01-03T21:51:35.468Z,5.45
2023-01-03T21:54:07.301Z,6.10
2023-01-03T21:56:37.377Z,6.13
2023-01-03T21:59:06.503Z,4.72
2023-01-03T22:01:54.572Z,5.55
2023-01-03T22:04:21.769Z,5.05
2023-01-03T22:06:49.585Z,5.43
2023-01-03T22:09:31.413Z,5.75
2023-01-03T22:11:59.272Z,5.32
2023-01-03T22:14:28.406Z,5.65
2023-01-03T22:16:56.171Z,4.95
2023-01-03T22:19:24.159Z,6.70
2023-01-03T22:21:52.087Z,4.55
2023-01-03T22:24:19.920Z,5.35
2023-01-03T22:26:47.701Z,5.13
2023-01-03T22:29:15.465Z,4.20
2023-01-03T22:31:46.179Z,4.25
2023-01-03T22:34:13.967Z,4.00
2023-01-03T22:36:41.747Z,4.30
2023-01-03T22:39:09.569Z,4.18
2023-01-03T22:41:37.336Z,4.35
2023-01-03T22:44:05.343Z,3.60
2023-01-03T22:46:33.070Z,3.90
2023-01-03T22:49:02.165Z,4.00
2023-01-03T22:51:29.936Z,3.70
2023-01-03T22:53:58.842Z,4.50
2023-01-03T22:56:26.742Z,3.42
2023-01-03T22:58:54.632Z,4.43
2023-01-03T23:01:27.494Z,3.67
2023-01-03T23:03:59.721Z,3.70
2023-01-03T23:06:30.246Z,4.30
2023-01-03T23:08:58.627Z,4.20
2023-01-03T23:11:46.366Z,4.07
2023-01-03T23:14:16.292Z,4.05
2023-01-03T23:16:44.506Z,3.33
2023-01-03T23:19:14.195Z,3.58
2023-01-03T23:21:44.935Z,3.80
2023-01-03T23:24:14.057Z,4.18
2023-01-03T23:26:41.886Z,4.00
2023-01-03T23:29:10.799Z,3.95
2023-01-03T23:31:38.633Z,3.90
2023-01-03T23:34:08.389Z,3.45
2023-01-03T23:36:36.201Z,3.53
2023-01-03T23:39:05.512Z,3.72
2023-01-03T23:41:34.356Z,3.70
2023-01-03T23:44:02.131Z,3.92
2023-01-03T23:46:30.053Z,3.63
2023-01-03T23:48:59.005Z,3.88
2023-01-03T23:51:27.620Z,3.75
2023-01-03T23:53:55.892Z,3.70
2023-01-03T23:56:25.889Z,3.90
2023-01-03T23:58:54.161Z,3.97
